Terminal Aerodrome Forecast
Issued by NWS

Home | Current Version | Previous Version | Text Only | Print | Product List | Glossary On
Versions: 1 2 3 4 5 6 7 8 9 10 11 12 13 14 15 16
000
FTUS45 KSLC 240147 AAA
TAFENV
TAF AMD
KENV 240147Z 2402/2424 16010KT P6SM BKN100
     FM240500 31010KT P6SM SCT100
     FM241600 29015G25KT P6SM VCSH SCT040 BKN060
      AMD LTD TO CLD VIS AND WIND=

USA.gov is the U.S. government's official web portal to all federal, state and local government web resources and services.